createdAt,value
2022-11-21T00:01:14.175Z,96067.13
2022-11-21T00:03:41.862Z,96059.28
2022-11-21T00:06:09.474Z,96058.78
2022-11-21T00:08:38.383Z,96062.06
2022-11-21T00:11:05.975Z,96069.28
2022-11-21T00:13:33.589Z,96061.28
2022-11-21T00:16:04.431Z,96067.16
2022-11-21T00:18:32.045Z,96065.50
2022-11-21T00:21:05.216Z,96060.16
2022-11-21T00:23:32.762Z,96050.38
2022-11-21T00:26:05.008Z,96051.16
2022-11-21T00:28:32.587Z,96042.69
2022-11-21T00:31:00.186Z,96053.63
2022-11-21T00:33:27.816Z,96057.75
2022-11-21T00:35:55.411Z,96058.22
2022-11-21T00:38:24.307Z,96055.47
2022-11-21T00:40:51.926Z,96054.50
2022-11-21T00:43:20.839Z,96063.34
2022-11-21T00:45:48.439Z,96058.63
2022-11-21T00:48:16.067Z,96055.72
2022-11-21T00:50:43.630Z,96053.56
2022-11-21T00:53:11.192Z,96060.28
2022-11-21T00:55:38.775Z,96052.47
2022-11-21T00:58:06.372Z,96055.72
2022-11-21T01:00:35.321Z,96057.38
2022-11-21T01:03:02.944Z,96062.41
2022-11-21T01:05:32.943Z,96055.41
2022-11-21T01:08:00.542Z,96061.44
2022-11-21T01:10:28.133Z,96052.63
2022-11-21T01:12:55.709Z,96045.97
2022-11-21T01:15:23.616Z,96058.88
2022-11-21T01:17:52.575Z,96045.63
2022-11-21T01:20:20.433Z,96043.84
2022-11-21T01:22:48.079Z,96058.56
2022-11-21T01:25:15.815Z,96040.91
2022-11-21T01:27:43.411Z,96048.09
2022-11-21T01:30:12.074Z,96046.28
2022-11-21T01:32:39.752Z,96048.09
2022-11-21T01:35:09.596Z,96051.19
2022-11-21T01:37:37.160Z,96048.44
2022-11-21T01:40:05.422Z,96047.47
2022-11-21T01:42:45.654Z,96038.13
2022-11-21T01:45:46.922Z,96053.34
2022-11-21T01:48:14.658Z,96044.84
2022-11-21T01:50:43.652Z,96040.94
2022-11-21T01:53:11.343Z,96040.78
2022-11-21T01:55:38.917Z,96036.38
2022-11-21T01:58:06.542Z,96030.16
2022-11-21T02:00:38.169Z,96029.69
2022-11-21T02:03:09.027Z,96022.00
2022-11-21T02:05:38.844Z,96029.50
2022-11-21T02:08:10.844Z,96025.91
2022-11-21T02:10:39.761Z,96035.72
2022-11-21T02:13:07.346Z,96034.41
2022-11-21T02:15:34.934Z,96031.47
2022-11-21T02:18:03.596Z,96027.69
2022-11-21T02:20:31.586Z,96013.78
2022-11-21T02:23:04.003Z,96018.00
2022-11-21T02:25:35.839Z,96024.41
2022-11-21T02:28:05.224Z,96031.09
2022-11-21T02:30:33.948Z,96026.53
2022-11-21T02:33:01.587Z,96027.53
2022-11-21T02:35:29.133Z,96010.03
2022-11-21T02:38:08.992Z,96013.47
2022-11-21T02:40:41.231Z,96009.22
2022-11-21T02:43:12.045Z,96009.38
2022-11-21T02:45:41.541Z,96004.97
2022-11-21T02:48:09.556Z,95998.91
2022-11-21T02:50:38.774Z,96006.28
2022-11-21T02:53:08.079Z,95999.09
2022-11-21T02:55:35.971Z,96002.19
2022-11-21T02:58:05.718Z,96001.38
2022-11-21T03:00:34.329Z,95999.75
2022-11-21T03:03:01.947Z,96005.13
2022-11-21T03:05:29.629Z,95998.13
2022-11-21T03:07:57.211Z,96000.88
2022-11-21T03:10:24.897Z,95999.91
2022-11-21T03:13:00.648Z,96006.75
2022-11-21T03:15:30.856Z,96009.06
2022-11-21T03:17:58.911Z,96000.75
2022-11-21T03:20:26.599Z,96005.00
2022-11-21T03:22:54.406Z,96005.97
2022-11-21T03:25:25.866Z,96003.19
2022-11-21T03:27:54.203Z,96001.22
2022-11-21T03:30:22.259Z,95994.53
2022-11-21T03:32:51.252Z,95993.75
2022-11-21T03:35:19.056Z,95983.44
2022-11-21T03:37:48.136Z,95990.16
2022-11-21T03:40:21.638Z,95987.34
2022-11-21T03:42:49.205Z,95983.59
2022-11-21T03:45:16.900Z,95971.53
2022-11-21T03:47:44.554Z,95974.13
2022-11-21T03:50:15.137Z,95978.53
2022-11-21T03:52:42.687Z,95971.34
2022-11-21T03:55:10.653Z,95972.97
2022-11-21T03:57:38.220Z,95970.38
2022-11-21T04:00:06.398Z,95961.72
2022-11-21T04:02:33.978Z,95971.19
2022-11-21T04:05:01.535Z,95959.75
2022-11-21T04:07:30.589Z,95962.53
2022-11-21T04:09:58.211Z,95961.88
2022-11-21T04:12:25.771Z,95966.44
2022-11-21T04:14:53.340Z,95968.06
2022-11-21T04:17:20.894Z,95970.69
2022-11-21T04:19:48.451Z,95968.91
2022-11-21T04:22:16.008Z,95974.59
2022-11-21T04:24:45.004Z,95961.88
2022-11-21T04:27:12.596Z,95968.09
2022-11-21T04:29:40.195Z,95975.44
2022-11-21T04:32:07.921Z,95971.34
2022-11-21T04:34:35.513Z,95981.81
2022-11-21T04:37:06.375Z,95972.81
2022-11-21T04:39:37.804Z,95973.16
2022-11-21T04:42:06.867Z,95968.44
2022-11-21T04:44:34.531Z,95971.19
2022-11-21T04:47:05.303Z,95955.50
2022-11-21T04:49:33.417Z,95952.88
2022-11-21T04:52:00.970Z,95946.03
2022-11-21T04:54:28.835Z,95942.75
2022-11-21T04:56:57.010Z,95937.53
2022-11-21T04:59:26.189Z,95930.16
2022-11-21T05:01:53.736Z,95947.00
2022-11-21T05:04:21.318Z,95941.94
2022-11-21T05:06:48.930Z,95935.88
2022-11-21T05:09:16.573Z,95927.72
2022-11-21T05:12:01.958Z,95931.47
2022-11-21T05:14:30.931Z,95928.22
2022-11-21T05:16:58.478Z,95929.38
2022-11-21T05:19:26.053Z,95931.63
2022-11-21T05:21:53.785Z,95935.38
2022-11-21T05:24:21.379Z,95929.16
2022-11-21T05:26:48.911Z,95932.91
2022-11-21T05:29:16.487Z,95944.34
2022-11-21T05:31:45.397Z,95946.31
2022-11-21T05:34:13.029Z,95937.66
2022-11-21T05:36:40.681Z,95932.59
2022-11-21T05:39:08.396Z,95934.56
2022-11-21T05:41:35.983Z,95941.09
2022-11-21T05:44:02.640Z,95933.72
2022-11-21T05:46:30.214Z,95935.53
2022-11-21T05:48:59.144Z,95935.38
2022-11-21T05:51:26.723Z,95925.56
2022-11-21T05:53:54.321Z,95926.25
2022-11-21T05:56:21.913Z,95935.41
2022-11-21T05:58:49.489Z,95931.81
2022-11-21T06:01:37.333Z,95925.75
2022-11-21T06:04:05.454Z,95931.81
2022-11-21T06:06:33.045Z,95931.63
2022-11-21T06:09:00.703Z,95923.00
2022-11-21T06:11:28.453Z,95931.97
2022-11-21T06:13:56.161Z,95936.19
2022-11-21T06:16:23.791Z,95915.63
2022-11-21T06:18:58.159Z,95918.75
2022-11-21T06:21:29.171Z,95910.25
2022-11-21T06:23:58.326Z,95911.03
2022-11-21T06:26:27.129Z,95914.13
2022-11-21T06:28:55.415Z,95922.78
2022-11-21T06:31:24.341Z,95927.66
2022-11-21T06:33:53.726Z,95929.78
2022-11-21T06:36:21.517Z,95940.25
2022-11-21T06:38:55.205Z,95933.03
2022-11-21T06:41:23.851Z,95930.44
2022-11-21T06:43:51.504Z,95943.69
2022-11-21T06:46:19.296Z,95940.91
2022-11-21T06:48:46.931Z,95946.47
2022-11-21T06:51:18.021Z,95948.44
2022-11-21T06:53:46.033Z,95947.31
2022-11-21T06:56:15.753Z,95956.31
2022-11-21T06:58:43.336Z,95960.56
2022-11-21T07:01:11.926Z,95960.69
2022-11-21T07:03:39.510Z,95955.81
2022-11-21T07:06:07.718Z,95967.41
2022-11-21T07:08:37.164Z,95977.69
2022-11-21T07:13:55.243Z,95975.41
2022-11-21T07:16:25.897Z,95981.63
2022-11-21T07:18:53.452Z,95974.75
2022-11-21T07:21:21.100Z,95973.94
2022-11-21T07:23:48.723Z,95976.56
2022-11-21T07:26:16.339Z,95973.78
2022-11-21T07:28:44.335Z,95971.34
2022-11-21T07:31:14.347Z,95978.06
2022-11-21T07:33:43.260Z,95972.47
2022-11-21T07:36:11.036Z,95972.00
2022-11-21T07:38:38.638Z,95983.56
2022-11-21T07:41:06.181Z,95978.69
2022-11-21T07:43:33.774Z,95981.94
2022-11-21T07:46:01.339Z,95993.22
2022-11-21T07:48:30.399Z,95986.38
2022-11-21T07:50:58.019Z,95989.31
2022-11-21T07:53:25.562Z,95983.75
2022-11-21T07:55:53.155Z,95992.44
2022-11-21T07:58:20.717Z,95989.81
2022-11-21T08:00:48.333Z,95987.53
2022-11-21T08:03:15.965Z,95990.78
2022-11-21T08:05:45.451Z,95999.66
2022-11-21T08:08:14.280Z,95991.16
2022-11-21T08:10:43.306Z,95993.28
2022-11-21T08:13:11.157Z,95988.66
2022-11-21T08:15:38.731Z,95976.84
2022-11-21T08:18:10.757Z,95978.94
2022-11-21T08:20:38.709Z,95975.16
2022-11-21T08:23:08.092Z,95966.00
2022-11-21T08:25:37.884Z,95975.81
2022-11-21T08:28:06.518Z,95972.38
2022-11-21T08:30:34.573Z,95973.69
2022-11-21T08:33:02.549Z,95984.81
2022-11-21T08:35:31.239Z,95973.91
2022-11-21T08:37:59.671Z,95977.44
2022-11-21T08:40:30.249Z,95981.28
2022-11-21T08:42:58.603Z,95975.56
2022-11-21T08:45:26.337Z,95979.59
2022-11-21T08:47:54.565Z,95982.78
2022-11-21T08:50:22.769Z,95983.44
2022-11-21T08:52:50.438Z,95984.63
2022-11-21T08:55:18.159Z,95981.06
2022-11-21T08:57:47.109Z,95981.38
2022-11-21T09:00:15.987Z,95986.44
2022-11-21T09:02:43.770Z,95987.94
2022-11-21T09:05:11.541Z,95984.28
2022-11-21T09:07:39.181Z,95976.19
2022-11-21T09:10:08.238Z,95978.25
2022-11-21T09:12:35.796Z,95977.28
2022-11-21T09:15:22.520Z,95982.88
2022-11-21T09:18:05.397Z,95985.88
2022-11-21T09:20:34.179Z,95988.50
2022-11-21T09:23:05.190Z,95990.69
2022-11-21T09:25:32.806Z,95985.06
2022-11-21T09:28:01.045Z,95985.91
2022-11-21T09:30:30.020Z,95991.34
2022-11-21T09:33:00.965Z,95991.44
2022-11-21T09:35:28.603Z,95996.81
2022-11-21T09:37:56.141Z,95992.97
2022-11-21T09:40:24.225Z,95990.50
2022-11-21T09:43:03.445Z,95995.13
2022-11-21T09:45:35.107Z,95988.88
2022-11-21T09:48:05.119Z,95989.06
2022-11-21T09:50:35.839Z,95988.50
2022-11-21T09:53:08.066Z,95983.13
2022-11-21T09:55:42.768Z,95990.13
2022-11-21T09:58:17.349Z,95980.66
2022-11-21T10:00:46.495Z,95980.53
2022-11-21T10:03:18.009Z,95976.91
2022-11-21T10:05:51.087Z,95975.34
2022-11-21T10:08:27.433Z,95990.22
2022-11-21T10:10:58.077Z,95980.38
2022-11-21T10:13:36.937Z,95987.50
2022-11-21T10:16:10.364Z,95980.09
2022-11-21T10:19:03.150Z,95983.63
2022-11-21T10:21:49.381Z,95970.53
2022-11-21T10:24:27.069Z,95984.97
2022-11-21T10:26:56.875Z,95979.09
2022-11-21T10:29:27.404Z,95972.84
2022-11-21T10:31:59.023Z,95970.97
2022-11-21T10:34:28.416Z,95959.09
2022-11-21T10:36:58.823Z,95964.16
2022-11-21T10:39:33.347Z,95959.53
2022-11-21T10:42:05.641Z,95953.59
2022-11-21T10:44:50.926Z,95952.47
2022-11-21T10:47:27.567Z,95949.22
2022-11-21T10:50:13.360Z,95950.19
2022-11-21T10:52:44.337Z,95944.31
2022-11-21T10:55:13.660Z,95949.94
2022-11-21T10:57:45.527Z,95941.78
2022-11-21T11:00:22.978Z,95959.53
2022-11-21T11:03:04.880Z,95956.81
2022-11-21T11:05:34.071Z,95945.97
2022-11-21T11:08:04.856Z,95946.94
2022-11-21T11:10:33.372Z,95945.41
2022-11-21T11:13:44.656Z,95937.47
2022-11-21T11:16:08.436Z,95926.44
2022-11-21T11:18:40.737Z,95925.50
2022-11-21T11:21:20.399Z,95922.88
2022-11-21T11:23:49.195Z,95921.56
2022-11-21T11:26:23.796Z,95929.78
2022-11-21T11:28:51.426Z,95921.78
2022-11-21T11:31:19.491Z,95918.16
2022-11-21T11:33:56.678Z,95928.03
2022-11-21T11:36:35.521Z,95931.69
2022-11-21T11:39:14.663Z,95926.25
2022-11-21T11:42:25.378Z,95931.47
2022-11-21T11:45:22.292Z,95936.94
2022-11-21T11:47:54.831Z,95934.16
2022-11-21T11:50:26.264Z,95926.13
2022-11-21T11:53:00.455Z,95926.22
2022-11-21T11:55:35.060Z,95923.25
2022-11-21T11:58:04.767Z,95921.75
2022-11-21T12:00:40.140Z,95924.84
2022-11-21T12:03:13.343Z,95928.69
2022-11-21T12:05:52.610Z,95916.03
2022-11-21T12:08:42.956Z,95919.66
2022-11-21T12:11:33.875Z,95915.38
2022-11-21T12:14:08.483Z,95919.09
2022-11-21T12:16:37.764Z,95911.94
2022-11-21T12:19:11.994Z,95904.25
2022-11-21T12:21:40.905Z,95899.19
2022-11-21T12:24:10.903Z,95892.56
2022-11-21T12:26:49.179Z,95890.53
2022-11-21T12:29:34.823Z,95890.09
2022-11-21T12:32:14.797Z,95901.97
2022-11-21T12:34:55.641Z,95907.50
2022-11-21T12:37:33.159Z,95904.88
2022-11-21T12:40:17.979Z,95902.41
2022-11-21T12:43:01.660Z,95900.53
2022-11-21T12:45:32.193Z,95889.94
2022-11-21T12:48:38.912Z,95877.56
2022-11-21T12:51:51.119Z,95877.69
2022-11-21T12:54:33.624Z,95864.88
2022-11-21T12:57:08.214Z,95867.94
2022-11-21T12:59:43.718Z,95871.88
2022-11-21T13:02:22.656Z,95864.56
2022-11-21T13:04:51.371Z,95867.94
2022-11-21T13:07:20.054Z,95857.72
2022-11-21T13:09:51.381Z,95854.56
2022-11-21T13:12:24.508Z,95846.94
2022-11-21T13:14:55.091Z,95848.28
2022-11-21T13:17:30.279Z,95853.19
2022-11-21T13:19:59.664Z,95846.03
2022-11-21T13:22:50.017Z,95840.06
2022-11-21T13:25:48.550Z,95842.50
2022-11-21T13:28:46.837Z,95838.41
2022-11-21T13:31:31.240Z,95838.69
2022-11-21T13:33:59.271Z,95839.06
2022-11-21T13:36:42.962Z,95838.53
2022-11-21T13:39:35.356Z,95829.47
2022-11-21T13:42:29.780Z,95831.72
2022-11-21T13:44:57.816Z,95825.03
2022-11-21T13:47:56.797Z,95828.91
2022-11-21T13:50:38.752Z,95829.38
2022-11-21T13:53:22.720Z,95826.13
2022-11-21T13:55:57.934Z,95819.25
2022-11-21T13:58:50.843Z,95814.44
2022-11-21T14:01:51.940Z,95812.66
2022-11-21T14:04:44.559Z,95804.69
2022-11-21T14:07:23.856Z,95809.19
2022-11-21T14:09:52.624Z,95809.88
2022-11-21T14:12:22.445Z,95807.28
2022-11-21T14:14:54.011Z,95809.56
2022-11-21T14:17:31.649Z,95804.41
2022-11-21T14:20:01.041Z,95806.13
2022-11-21T14:22:35.113Z,95803.69
2022-11-21T14:25:08.631Z,95805.47
2022-11-21T14:27:45.237Z,95796.41
2022-11-21T14:30:29.053Z,95793.88
2022-11-21T14:32:56.926Z,95775.59
2022-11-21T14:35:25.396Z,95792.28
2022-11-21T14:37:53.109Z,95791.34
2022-11-21T14:40:22.800Z,95788.69
2022-11-21T14:42:52.061Z,95785.84
2022-11-21T14:45:21.712Z,95800.59
2022-11-21T14:47:52.848Z,95799.03
2022-11-21T14:50:27.949Z,95803.53
2022-11-21T14:52:58.134Z,95804.88
2022-11-21T14:55:31.015Z,95798.66
2022-11-21T14:58:00.428Z,95795.88
2022-11-21T15:00:58.470Z,95792.47
2022-11-21T15:03:22.107Z,95794.16
2022-11-21T15:06:07.992Z,95799.09
2022-11-21T15:11:33.866Z,95796.72
2022-11-21T15:14:15.512Z,95797.94
2022-11-21T15:16:44.032Z,95800.69
2022-11-21T15:19:13.056Z,95791.06
2022-11-21T15:21:46.423Z,95796.03
2022-11-21T15:24:40.034Z,95792.94
2022-11-21T15:27:33.429Z,95787.72
2022-11-21T15:30:22.919Z,95771.41
2022-11-21T15:33:03.700Z,95763.41
2022-11-21T15:35:47.286Z,95757.06
2022-11-21T15:38:19.902Z,95747.13
2022-11-21T15:40:59.233Z,95740.09
2022-11-21T15:43:41.187Z,95731.31
2022-11-21T15:46:17.686Z,95727.56
2022-11-21T15:48:49.352Z,95728.03
2022-11-21T15:51:27.229Z,95714.19
2022-11-21T15:54:15.354Z,95720.38
2022-11-21T15:56:42.985Z,95720.69
2022-11-21T15:59:10.789Z,95713.50
2022-11-21T16:01:38.622Z,95698.50
2022-11-21T16:04:07.706Z,95703.53
2022-11-21T16:06:37.111Z,95701.44
2022-11-21T16:09:05.427Z,95697.34
2022-11-21T16:11:34.937Z,95702.22
2022-11-21T16:14:03.655Z,95691.47
2022-11-21T16:16:34.009Z,95696.38
2022-11-21T16:19:01.672Z,95703.22
2022-11-21T16:21:29.339Z,95703.88
2022-11-21T16:23:59.073Z,95706.16
2022-11-21T16:26:28.704Z,95706.63
2022-11-21T16:28:56.498Z,95719.19
2022-11-21T16:31:25.448Z,95719.50
2022-11-21T16:33:53.178Z,95717.88
2022-11-21T16:36:22.071Z,95731.06
2022-11-21T16:38:49.703Z,95720.28
2022-11-21T16:41:19.862Z,95711.47
2022-11-21T16:43:49.886Z,95696.94
2022-11-21T16:46:18.575Z,95689.63
2022-11-21T16:48:46.240Z,95701.50
2022-11-21T16:51:17.943Z,95701.84
2022-11-21T16:53:46.371Z,95694.47
2022-11-21T16:56:15.260Z,95686.50
2022-11-21T16:58:45.014Z,95686.19
2022-11-21T17:01:14.462Z,95685.53
2022-11-21T17:03:44.053Z,95673.09
2022-11-21T17:06:13.793Z,95670.31
2022-11-21T17:08:41.961Z,95667.22
2022-11-21T17:11:13.966Z,95674.88
2022-11-21T17:13:42.166Z,95665.75
2022-11-21T17:16:11.533Z,95655.66
2022-11-21T17:18:39.639Z,95648.63
2022-11-21T17:21:08.940Z,95646.69
2022-11-21T17:23:38.354Z,95648.84
2022-11-21T17:26:07.567Z,95637.88
2022-11-21T17:28:37.260Z,95655.44
2022-11-21T17:31:08.104Z,95654.31
2022-11-21T17:33:37.134Z,95647.63
2022-11-21T17:36:05.383Z,95637.53
2022-11-21T17:38:33.466Z,95637.66
2022-11-21T17:41:01.778Z,95640.59
2022-11-21T17:43:29.771Z,95646.59
2022-11-21T17:46:04.955Z,95633.56
2022-11-21T17:48:37.604Z,95632.56
2022-11-21T17:51:07.072Z,95636.13
2022-11-21T17:53:37.219Z,95628.97
2022-11-21T17:56:06.934Z,95626.13
2022-11-21T17:58:35.098Z,95608.22
2022-11-21T18:01:06.789Z,95612.72
2022-11-21T18:03:35.614Z,95609.44
2022-11-21T18:06:06.458Z,95594.44
2022-11-21T18:08:35.466Z,95588.44
2022-11-21T18:11:03.292Z,95580.75
2022-11-21T18:13:31.561Z,95575.22
2022-11-21T18:16:01.967Z,95573.91
2022-11-21T18:18:29.554Z,95567.53
2022-11-21T18:21:04.651Z,95547.34
2022-11-21T18:23:32.706Z,95547.53
2022-11-21T18:26:04.340Z,95557.31
2022-11-21T18:28:32.113Z,95549.50
2022-11-21T18:31:07.761Z,95550.28
2022-11-21T18:33:35.369Z,95546.25
2022-11-21T18:36:05.801Z,95556.09
2022-11-21T18:38:48.227Z,95549.94
2022-11-21T18:41:19.142Z,95547.97
2022-11-21T18:43:51.942Z,95546.66
2022-11-21T18:46:20.118Z,95544.84
2022-11-21T18:49:02.150Z,95546.28
2022-11-21T18:51:33.508Z,95550.19
2022-11-21T18:54:03.961Z,95549.53
2022-11-21T18:56:31.698Z,95545.94
2022-11-21T18:58:59.539Z,95545.75
2022-11-21T19:01:28.808Z,95538.22
2022-11-21T19:03:57.033Z,95540.63
2022-11-21T19:06:25.951Z,95532.34
2022-11-21T19:08:56.188Z,95538.50
2022-11-21T19:11:25.223Z,95529.53
2022-11-21T19:13:53.345Z,95513.13
2022-11-21T19:16:21.965Z,95524.66
2022-11-21T19:19:11.540Z,95521.69
2022-11-21T19:21:38.553Z,95520.72
2022-11-21T19:24:08.155Z,95510.81
2022-11-21T19:26:36.200Z,95503.50
2022-11-21T19:29:03.901Z,95502.19
2022-11-21T19:31:31.572Z,95486.72
2022-11-21T19:33:59.455Z,95497.13
2022-11-21T19:36:27.034Z,95483.00
2022-11-21T19:38:54.639Z,95483.84
2022-11-21T19:41:25.824Z,95483.34
2022-11-21T19:43:55.036Z,95478.81
2022-11-21T19:46:24.297Z,95475.59
2022-11-21T19:48:53.732Z,95476.22
2022-11-21T19:51:22.746Z,95470.88
2022-11-21T19:53:50.570Z,95482.72
2022-11-21T19:56:19.954Z,95472.59
2022-11-21T19:58:49.839Z,95472.72
2022-11-21T20:01:19.025Z,95477.94
2022-11-21T20:03:48.177Z,95472.06
2022-11-21T20:06:17.610Z,95463.78
2022-11-21T20:08:46.065Z,95455.31
2022-11-21T20:11:15.528Z,95457.94
2022-11-21T20:13:44.059Z,95459.72
2022-11-21T20:16:19.908Z,95449.78
2022-11-21T20:18:47.849Z,95449.94
2022-11-21T20:21:17.118Z,95455.44
2022-11-21T20:23:46.054Z,95439.47
2022-11-21T20:26:14.310Z,95434.44
2022-11-21T20:28:42.234Z,95426.13
2022-11-21T20:31:11.563Z,95417.00
2022-11-21T20:33:41.496Z,95413.25
2022-11-21T20:36:10.576Z,95402.84
2022-11-21T20:38:38.240Z,95405.59
2022-11-21T20:41:06.063Z,95405.09
2022-11-21T20:44:14.399Z,95401.34
2022-11-21T20:46:21.545Z,95401.03
2022-11-21T20:48:50.923Z,95387.22
2022-11-21T20:52:31.511Z,95383.28
2022-11-21T20:54:06.316Z,95370.47
2022-11-21T20:56:34.517Z,95365.44
2022-11-21T20:59:02.263Z,95357.13
2022-11-21T21:01:29.910Z,95356.53
2022-11-21T21:03:58.920Z,95354.25
2022-11-21T21:06:26.694Z,95361.91
2022-11-21T21:08:54.482Z,95368.63
2022-11-21T21:14:11.346Z,95380.97
2022-11-21T21:16:38.902Z,95372.84
2022-11-21T21:19:07.826Z,95373.31
2022-11-21T21:21:35.399Z,95383.56
2022-11-21T21:24:04.865Z,95371.03
2022-11-21T21:26:40.214Z,95369.72
2022-11-21T21:29:11.072Z,95366.94
2022-11-21T21:31:38.654Z,95356.69
2022-11-21T21:34:07.709Z,95365.41
2022-11-21T21:36:35.332Z,95359.38
2022-11-21T21:39:02.979Z,95352.13
2022-11-21T21:41:31.581Z,95338.28
2022-11-21T21:43:59.663Z,95338.56
2022-11-21T21:46:29.672Z,95333.53
2022-11-21T21:48:58.628Z,95332.56
2022-11-21T21:51:29.388Z,95322.31
2022-11-21T21:53:58.343Z,95334.81
2022-11-21T21:56:27.392Z,95337.88
2022-11-21T21:58:55.307Z,95343.88
2022-11-21T22:01:24.826Z,95341.44
2022-11-21T22:03:54.241Z,95349.22
2022-11-21T22:06:22.242Z,95346.66
2022-11-21T22:08:51.613Z,95350.63
2022-11-21T22:11:20.402Z,95346.47
2022-11-21T22:13:49.774Z,95345.50
2022-11-21T22:16:17.387Z,95333.31
2022-11-21T22:18:44.990Z,95327.22
2022-11-21T22:21:16.644Z,95328.97
2022-11-21T22:24:09.387Z,95332.88
2022-11-21T22:26:33.340Z,95332.56
2022-11-21T22:29:00.956Z,95329.50
2022-11-21T22:31:30.617Z,95343.78
2022-11-21T22:33:58.736Z,95335.13
2022-11-21T22:36:26.544Z,95325.03
2022-11-21T22:38:54.795Z,95322.47
2022-11-21T22:41:23.906Z,95324.09
2022-11-21T22:43:54.216Z,95307.34
2022-11-21T22:46:22.172Z,95315.66
2022-11-21T22:48:49.850Z,95314.34
2022-11-21T22:51:19.706Z,95314.88
2022-11-21T22:53:47.681Z,95313.38
2022-11-21T22:56:16.767Z,95291.16
2022-11-21T22:58:45.465Z,95293.09
2022-11-21T23:01:15.868Z,95292.59
2022-11-21T23:03:44.085Z,95287.38
2022-11-21T23:06:13.503Z,95287.06
2022-11-21T23:08:41.285Z,95287.91
2022-11-21T23:11:10.583Z,95277.50
2022-11-21T23:13:39.373Z,95277.34
2022-11-21T23:16:07.832Z,95279.31
2022-11-21T23:18:40.034Z,95273.63
2022-11-21T23:21:07.778Z,95279.31
2022-11-21T23:23:35.721Z,95280.91
2022-11-21T23:26:03.380Z,95287.09
2022-11-21T23:28:31.404Z,95286.13
2022-11-21T23:30:58.973Z,95286.16
2022-11-21T23:33:27.259Z,95277.84
2022-11-21T23:35:56.260Z,95277.53
2022-11-21T23:38:24.017Z,95276.41
2022-11-21T23:40:51.592Z,95273.47
2022-11-21T23:43:19.735Z,95275.56
2022-11-21T23:45:51.205Z,95277.81
2022-11-21T23:48:19.050Z,95277.31
2022-11-21T23:50:47.036Z,95272.31
2022-11-21T23:53:15.956Z,95279.47
2022-11-21T23:55:43.773Z,95270.69
2022-11-21T23:58:11.424Z,95272.94
